Time;durP1;ratioP1;P1;durP2;ratioP2;P2;SDS_P1;SDS_P2;PMS_P1;PMS_P2;Temp;Humidity;BMP_temperature;BMP_pressure;BME280_temperature;BME280_humidity;BME280_pressure;Samples;Min_cycle;Max_cycle;Signal;HPM_P1;HPM_P2
2022/11/23 00:00:42;;;;;;;7.13;2.08;;;;;;;10.34;68.47;99509.25;5141953;27;20048;-62
2022/11/23 00:03:14;;;;;;;9.38;2.58;;;;;;;10.35;68.69;99513.56;5145205;27;20054;-62
2022/11/23 00:05:42;;;;;;;9.48;2.08;;;;;;;10.35;68.51;99507.38;5144048;27;20053;-62
2022/11/23 00:08:09;;;;;;;7.75;2.22;;;;;;;10.36;68.60;99519.75;5134435;27;20075;-61
2022/11/23 00:10:37;;;;;;;7.72;2.35;;;;;;;10.34;68.58;99514.63;5145688;27;20118;-62
2022/11/23 00:13:06;;;;;;;12.55;3.65;;;;;;;10.26;68.68;99509.72;5141140;27;20053;-63
2022/11/23 00:15:34;;;;;;;7.97;2.30;;;;;;;10.26;68.53;99512.41;5141980;27;20062;-63
2022/11/23 00:18:02;;;;;;;5.88;2.13;;;;;;;10.35;68.49;99512.75;5139171;27;20115;-62
2022/11/23 00:20:30;;;;;;;6.20;1.83;;;;;;;10.35;68.43;99521.63;5145263;27;20468;-62
2022/11/23 00:22:57;;;;;;;8.95;2.03;;;;;;;10.36;68.21;99514.38;5144770;27;20161;-62
2022/11/23 00:25:25;;;;;;;8.48;1.75;;;;;;;10.35;68.49;99520.81;5142601;27;20129;-63
2022/11/23 00:27:53;;;;;;;6.72;1.70;;;;;;;10.36;68.23;99520.56;5134809;27;20047;-62
2022/11/23 00:30:22;;;;;;;11.32;2.05;;;;;;;10.36;68.24;99525.13;5133357;27;20126;-62
2022/11/23 00:32:49;;;;;;;5.47;2.00;;;;;;;10.36;68.43;99528.63;5145122;27;20158;-62
2022/11/23 00:35:17;;;;;;;7.00;2.47;;;;;;;10.36;68.28;99523.25;5140602;27;20047;-62
2022/11/23 00:37:45;;;;;;;8.82;2.55;;;;;;;10.36;68.52;99530.50;5139249;27;20796;-62
2022/11/23 00:40:12;;;;;;;9.20;2.50;;;;;;;10.35;68.58;99534.25;5141384;27;20058;-62
2022/11/23 00:42:40;;;;;;;12.30;2.20;;;;;;;10.36;68.53;99533.19;5145180;27;20154;-62
2022/11/23 00:45:09;;;;;;;7.50;2.00;;;;;;;10.35;68.38;99537.75;5143189;27;20100;-62
2022/11/23 00:47:38;;;;;;;10.70;3.03;;;;;;;10.33;68.19;99531.00;5136048;27;20126;-63
2022/11/23 00:50:06;;;;;;;6.95;2.13;;;;;;;10.35;68.25;99532.38;5131642;27;20130;-62
2022/11/23 00:52:34;;;;;;;8.55;2.20;;;;;;;10.33;68.32;99531.00;5145485;27;20053;-62
2022/11/23 00:55:02;;;;;;;7.70;2.63;;;;;;;10.33;68.44;99534.50;5142620;27;20042;-62
2022/11/23 00:57:29;;;;;;;6.95;2.97;;;;;;;10.33;68.45;99539.06;5139102;27;20035;-62
2022/11/23 00:59:57;;;;;;;8.38;2.38;;;;;;;10.23;68.39;99529.00;5144286;27;20138;-62
2022/11/23 01:02:25;;;;;;;9.77;2.65;;;;;;;10.32;68.74;99538.25;5132810;27;20341;-62
2022/11/23 01:04:54;;;;;;;8.20;2.40;;;;;;;10.32;68.36;99537.44;5145296;27;20485;-62
2022/11/23 01:07:21;;;;;;;9.48;2.60;;;;;;;10.30;68.34;99545.75;5142369;27;20065;-62
2022/11/23 01:09:49;;;;;;;8.20;2.10;;;;;;;10.31;68.08;99547.38;5144432;27;20063;-62
2022/11/23 01:12:17;;;;;;;8.45;2.50;;;;;;;10.31;68.21;99542.00;5137341;27;20047;-62
2022/11/23 01:14:44;;;;;;;8.23;2.10;;;;;;;10.31;68.32;99551.94;5144383;27;20380;-61
2022/11/23 01:17:12;;;;;;;7.32;2.20;;;;;;;10.31;68.38;99550.06;5140731;27;20597;-62
2022/11/23 01:19:40;;;;;;;9.55;2.60;;;;;;;10.31;68.21;99544.69;5144183;27;20059;-62
2022/11/23 01:22:09;;;;;;;7.00;2.10;;;;;;;10.30;68.10;99556.47;5143910;27;20047;-62
2022/11/23 01:24:36;;;;;;;10.63;2.70;;;;;;;10.32;68.43;99554.34;5135671;27;20106;-63
2022/11/23 01:27:04;;;;;;;6.10;2.10;;;;;;;10.32;68.20;99553.53;5138951;27;20129;-62
2022/11/23 01:29:32;;;;;;;8.48;2.33;;;;;;;10.31;68.19;99555.41;5140161;27;20060;-62
2022/11/23 01:32:00;;;;;;;8.20;2.15;;;;;;;10.31;68.39;99558.09;5144469;27;20070;-62
2022/11/23 01:34:28;;;;;;;10.90;2.90;;;;;;;10.31;68.14;99565.34;5144321;27;20134;-62
2022/11/23 01:36:56;;;;;;;9.60;2.90;;;;;;;10.29;68.30;99562.91;5141111;27;20051;-62
2022/11/23 01:39:25;;;;;;;4.93;2.00;;;;;;;10.30;68.42;99572.59;5138507;27;20103;-62
2022/11/23 01:41:52;;;;;;;5.35;2.17;;;;;;;10.30;68.16;99569.91;5140842;27;20047;-63
2022/11/23 01:44:29;;;;;;;7.20;2.30;;;;;;;10.31;68.05;99571.53;5143643;27;20039;-63
2022/11/23 01:46:59;;;;;;;11.30;2.25;;;;;;;10.30;67.88;99567.22;5142489;27;20039;-63
2022/11/23 01:49:30;;;;;;;8.98;2.28;;;;;;;10.29;68.38;99572.84;5141771;27;20111;-62
2022/11/23 01:52:01;;;;;;;6.88;2.88;;;;;;;10.29;68.21;99570.97;5140452;27;20050;-63
2022/11/23 01:54:36;;;;;;;10.48;1.83;;;;;;;10.28;68.08;99571.22;5143384;27;20043;-62
2022/11/23 01:57:10;;;;;;;5.63;1.90;;;;;;;10.27;68.27;99573.09;5128110;27;20039;-62
2022/11/23 01:59:38;;;;;;;12.63;2.58;;;;;;;10.26;68.32;99568.78;5141357;27;20043;-63
2022/11/23 02:02:06;;;;;;;5.57;2.08;;;;;;;10.27;68.22;99566.91;5141031;27;20050;-62
2022/11/23 02:04:39;;;;;;;10.40;2.58;;;;;;;10.27;67.95;99570.41;5144095;27;20043;-62
2022/11/23 02:07:08;;;;;;;10.65;2.60;;;;;;;10.27;68.09;99570.41;5140541;27;20062;-63
2022/11/23 02:09:37;;;;;;;6.90;2.78;;;;;;;10.29;68.16;99584.41;5143224;28;20050;-63
2022/11/23 02:12:10;;;;;;;7.18;2.55;;;;;;;10.30;68.08;99577.16;5140337;28;20047;-63
2022/11/23 02:14:39;;;;;;;14.95;2.40;;;;;;;10.28;67.99;99582.78;5144019;28;20163;-63
2022/11/23 02:17:07;;;;;;;6.85;2.03;;;;;;;10.29;68.07;99584.41;5128499;28;20135;-63
2022/11/23 02:19:47;;;;;;;9.85;2.13;;;;;;;10.29;68.09;99591.66;5123331;28;20052;-63
2022/11/23 02:22:23;;;;;;;6.07;1.70;;;;;;;10.28;68.16;99590.84;5142019;28;20047;-63
2022/11/23 02:24:55;;;;;;;7.43;2.00;;;;;;;10.28;68.07;99593.50;5139949;28;20055;-63
2022/11/23 02:27:24;;;;;;;9.10;1.90;;;;;;;10.28;68.18;99590.84;5142865;28;20050;-63
2022/11/23 02:29:54;;;;;;;9.82;2.05;;;;;;;10.29;68.08;99594.31;5140106;28;20047;-63
2022/11/23 02:32:24;;;;;;;5.90;1.50;;;;;;;10.30;68.01;99596.75;5135257;28;20159;-63
2022/11/23 02:34:51;;;;;;;6.30;1.95;;;;;;;10.31;68.19;99594.88;5142736;28;20051;-63
2022/11/23 02:37:19;;;;;;;6.18;3.00;;;;;;;10.28;68.16;99601.56;5137003;28;20058;-62
2022/11/23 02:39:49;;;;;;;6.65;1.85;;;;;;;10.30;68.28;99598.63;5142668;28;20070;-63
2022/11/23 02:42:17;;;;;;;8.32;1.77;;;;;;;10.26;68.23;99590.28;5142901;28;20047;-63
2022/11/23 02:44:55;;;;;;;10.45;2.40;;;;;;;10.28;68.54;99595.38;5136754;28;20050;-63
2022/11/23 02:47:23;;;;;;;9.23;2.25;;;;;;;10.28;68.14;99588.16;5141682;28;20051;-63
2022/11/23 02:49:51;;;;;;;5.45;1.77;;;;;;;10.29;68.55;99594.31;5142575;28;20523;-63
2022/11/23 02:52:19;;;;;;;8.00;2.15;;;;;;;10.28;68.31;99603.44;5141506;28;20051;-63
2022/11/23 02:54:46;;;;;;;9.90;2.15;;;;;;;10.30;68.26;99598.63;5139857;28;20055;-63
2022/11/23 02:57:14;;;;;;;6.88;2.00;;;;;;;10.28;68.57;99598.88;5144232;27;20055;-63
2022/11/23 02:59:42;;;;;;;6.88;2.38;;;;;;;10.29;68.57;99605.88;5146758;27;20085;-63
2022/11/23 03:02:11;;;;;;;9.43;2.45;;;;;;;10.27;68.47;99599.94;5134045;27;20124;-63
2022/11/23 03:04:39;;;;;;;7.35;1.90;;;;;;;10.27;68.42;99593.75;5133087;27;20540;-63
2022/11/23 03:07:06;;;;;;;9.32;2.75;;;;;;;10.26;68.54;99595.63;5138232;27;20207;-63
2022/11/23 03:09:34;;;;;;;10.95;3.00;;;;;;;10.27;68.34;99596.44;5143928;27;20122;-63
2022/11/23 03:12:02;;;;;;;11.57;2.20;;;;;;;10.29;68.43;99594.31;5142263;27;20135;-63
2022/11/23 03:14:30;;;;;;;7.47;2.00;;;;;;;10.29;68.44;99599.69;5144106;27;20043;-63
2022/11/23 03:16:57;;;;;;;7.88;3.05;;;;;;;10.27;68.52;99597.25;5147028;27;20061;-63
2022/11/23 03:19:26;;;;;;;9.18;2.17;;;;;;;10.25;68.24;99604.75;5135349;27;20417;-63
2022/11/23 03:21:54;;;;;;;8.07;2.53;;;;;;;10.25;68.51;99598.56;5136720;27;20054;-63
2022/11/23 03:24:22;;;;;;;8.32;2.45;;;;;;;10.26;68.33;99598.31;5144810;27;20050;-63
2022/11/23 03:26:49;;;;;;;11.13;2.28;;;;;;;10.24;68.60;99602.31;5145162;27;21262;-63
2022/11/23 03:29:17;;;;;;;9.70;1.88;;;;;;;10.24;67.99;99602.31;5143958;27;20043;-63
2022/11/23 03:31:45;;;;;;;6.50;2.10;;;;;;;10.25;68.46;99606.63;5145620;27;20047;-63
2022/11/23 03:34:12;;;;;;;10.00;2.13;;;;;;;10.25;68.12;99601.25;5145992;27;20047;-63
2022/11/23 03:36:41;;;;;;;8.52;2.20;;;;;;;10.26;68.34;99609.06;5145612;27;20053;-63
2022/11/23 03:39:09;;;;;;;10.80;2.40;;;;;;;10.27;68.29;99607.19;5127133;27;20135;-63
2022/11/23 03:41:37;;;;;;;10.50;2.05;;;;;;;10.26;68.16;99608.25;5128069;27;20055;-61
2022/11/23 03:44:05;;;;;;;7.80;2.20;;;;;;;10.25;68.34;99604.75;5143852;27;20110;-62
2022/11/23 03:46:32;;;;;;;8.50;1.85;;;;;;;10.27;68.02;99605.31;5146700;27;20098;-62
2022/11/23 03:49:00;;;;;;;8.18;2.08;;;;;;;10.24;68.39;99597.75;5141525;27;20047;-62
2022/11/23 03:51:28;;;;;;;3.47;1.60;;;;;;;10.25;68.51;99601.25;5146463;27;20119;-62
2022/11/23 03:53:57;;;;;;;9.90;2.13;;;;;;;10.25;68.18;99604.75;5144332;27;20690;-62
2022/11/23 03:56:24;;;;;;;6.43;1.80;;;;;;;10.24;67.88;99603.13;5146770;27;20137;-62
2022/11/23 03:58:52;;;;;;;7.10;1.73;;;;;;;10.22;68.13;99597.19;5145061;27;20050;-62
2022/11/23 04:01:20;;;;;;;10.00;2.13;;;;;;;10.24;67.98;99599.63;5141342;27;20061;-62
2022/11/23 04:03:47;;;;;;;7.03;2.15;;;;;;;10.24;68.13;99613.88;5144205;27;20051;-62
2022/11/23 04:06:15;;;;;;;8.73;2.13;;;;;;;10.24;68.08;99610.38;5141891;27;20056;-63
2022/11/23 04:08:44;;;;;;;9.73;1.92;;;;;;;10.24;68.28;99608.50;5142893;27;20039;-62
2022/11/23 04:11:13;;;;;;;7.38;2.08;;;;;;;10.24;68.33;99607.69;5135914;27;20051;-62
2022/11/23 04:13:40;;;;;;;9.65;2.03;;;;;;;10.24;68.07;99608.50;5143116;27;20129;-62
2022/11/23 04:16:08;;;;;;;7.85;1.70;;;;;;;10.22;68.23;99610.63;5145935;27;20047;-62
2022/11/23 04:18:36;;;;;;;10.65;2.47;;;;;;;10.23;68.14;99612.25;5144915;27;20059;-62
2022/11/23 04:21:04;;;;;;;6.10;1.70;;;;;;;10.23;68.15;99612.25;5143520;27;20043;-62
2022/11/23 04:23:31;;;;;;;12.65;3.47;;;;;;;10.21;68.13;99600.13;5143965;27;20054;-63
2022/11/23 04:25:59;;;;;;;8.57;2.28;;;;;;;10.22;67.80;99599.88;5140815;27;20082;-62
2022/11/23 04:28:28;;;;;;;7.28;2.13;;;;;;;10.22;68.17;99607.94;5141015;27;20058;-62
2022/11/23 04:30:57;;;;;;;8.43;2.30;;;;;;;10.20;68.07;99604.69;5137818;27;20096;-62
2022/11/23 04:33:25;;;;;;;8.88;2.17;;;;;;;10.21;68.01;99602.81;5144783;27;20051;-61
2022/11/23 04:35:53;;;;;;;10.55;2.45;;;;;;;10.22;68.00;99609.81;5145696;27;20054;-63
2022/11/23 04:38:20;;;;;;;8.10;1.98;;;;;;;10.21;68.00;99600.94;5139424;27;20055;-63
2022/11/23 04:40:48;;;;;;;8.15;2.45;;;;;;;10.21;67.80;99595.56;5137172;27;20047;-62
2022/11/23 04:43:16;;;;;;;11.23;2.28;;;;;;;10.21;67.87;99600.13;5140529;27;20047;-62
2022/11/23 04:45:45;;;;;;;12.20;3.42;;;;;;;10.22;67.92;99609.81;5142125;27;20046;-63
2022/11/23 04:48:13;;;;;;;8.40;2.30;;;;;;;10.20;68.05;99610.06;5144652;27;20069;-63
2022/11/23 04:50:41;;;;;;;10.02;2.33;;;;;;;10.20;68.03;99606.56;5138176;27;20047;-62
2022/11/23 04:53:13;;;;;;;14.38;2.22;;;;;;;10.19;67.95;99611.09;5142223;27;20047;-63
2022/11/23 04:55:41;;;;;;;8.73;2.47;;;;;;;10.21;67.84;99617.06;5142548;27;20043;-62
2022/11/23 04:58:09;;;;;;;9.80;1.98;;;;;;;10.19;67.91;99604.91;5140072;27;20054;-63
2022/11/23 05:00:37;;;;;;;9.88;2.60;;;;;;;10.19;67.57;99604.91;5142531;27;20126;-62
2022/11/23 05:03:06;;;;;;;5.78;2.15;;;;;;;10.20;67.62;99601.19;5124184;28;20043;-62
2022/11/23 05:05:33;;;;;;;10.27;2.50;;;;;;;10.20;67.86;99596.63;5129945;27;20054;-62
2022/11/23 05:08:01;;;;;;;6.00;2.10;;;;;;;10.19;67.88;99599.53;5143075;27;20043;-63
2022/11/23 05:10:29;;;;;;;8.75;2.25;;;;;;;10.20;67.63;99601.19;5131250;27;20043;-62
2022/11/23 05:12:56;;;;;;;11.65;3.15;;;;;;;10.18;67.68;99601.41;5143654;27;20168;-62
2022/11/23 05:15:24;;;;;;;7.50;2.00;;;;;;;10.17;67.49;99599.78;5139280;27;20051;-62
2022/11/23 05:17:52;;;;;;;7.05;2.28;;;;;;;10.17;67.69;99593.59;5143032;27;20134;-62
2022/11/23 05:20:27;;;;;;;10.20;2.58;;;;;;;10.16;67.70;99600.84;5144696;27;20071;-63
2022/11/23 05:22:54;;;;;;;13.52;2.83;;;;;;;10.17;67.63;99598.97;5141625;27;20142;-63
2022/11/23 05:25:22;;;;;;;10.88;2.45;;;;;;;10.16;67.58;99600.03;5140525;27;20049;-62
2022/11/23 05:27:50;;;;;;;6.88;2.40;;;;;;;10.17;67.74;99596.28;5142340;27;20161;-62
2022/11/23 05:30:18;;;;;;;8.43;2.50;;;;;;;10.16;67.45;99602.72;5127980;27;20046;-62
2022/11/23 05:32:46;;;;;;;8.02;2.53;;;;;;;10.16;67.29;99602.72;5142675;27;20130;-62
2022/11/23 05:35:13;;;;;;;7.70;2.03;;;;;;;10.07;67.26;99592.41;5124546;28;20135;-62
2022/11/23 05:37:43;;;;;;;7.15;2.08;;;;;;;10.15;67.60;99604.59;5136040;27;20047;-62
2022/11/23 05:40:11;;;;;;;6.95;2.40;;;;;;;10.15;67.47;99598.41;5134331;27;20046;-63
2022/11/23 05:42:39;;;;;;;8.50;2.47;;;;;;;10.16;67.32;99605.41;5133199;27;20122;-62
2022/11/23 05:45:07;;;;;;;12.02;2.75;;;;;;;10.15;67.48;99601.91;5124188;27;20115;-62
2022/11/23 05:47:38;;;;;;;11.15;2.10;;;;;;;10.13;67.15;99604.03;5142122;27;20089;-62
2022/11/23 05:50:07;;;;;;;13.40;2.72;;;;;;;10.13;67.32;99608.59;5143052;27;20043;-62
2022/11/23 05:52:35;;;;;;;14.07;2.30;;;;;;;10.12;67.29;99607.78;5142685;27;20055;-63
2022/11/23 05:55:05;;;;;;;9.85;2.30;;;;;;;10.13;67.60;99609.41;5127968;27;20115;-62
2022/11/23 05:57:32;;;;;;;16.38;1.92;;;;;;;10.13;67.09;99608.59;5143929;27;20058;-63
2022/11/23 06:00:00;;;;;;;12.38;2.50;;;;;;;10.11;67.68;99601.59;5132982;27;20053;-64
2022/11/23 06:02:28;;;;;;;10.40;2.78;;;;;;;10.14;67.05;99615.59;5142024;27;20050;-62
2022/11/23 06:04:55;;;;;;;11.00;2.97;;;;;;;10.14;67.42;99607.53;5134515;27;20111;-63
2022/11/23 06:07:23;;;;;;;10.13;2.38;;;;;;;10.13;67.21;99603.22;5134412;27;20544;-62
2022/11/23 06:09:51;;;;;;;10.93;2.45;;;;;;;10.11;67.35;99598.91;5142275;27;20047;-63
2022/11/23 06:12:20;;;;;;;11.00;2.80;;;;;;;10.14;67.52;99610.22;5140369;28;20134;-64
2022/11/23 06:14:47;;;;;;;10.65;2.95;;;;;;;10.13;67.24;99606.72;5140104;28;20119;-63
2022/11/23 06:17:15;;;;;;;6.75;2.70;;;;;;;10.11;67.55;99612.34;5141134;27;20106;-63
2022/11/23 06:19:43;;;;;;;13.00;2.70;;;;;;;10.11;67.16;99614.22;5138891;28;20047;-63
2022/11/23 06:22:11;;;;;;;6.78;1.92;;;;;;;10.10;67.20;99613.41;5144169;28;20057;-63
2022/11/23 06:24:38;;;;;;;9.80;2.15;;;;;;;10.09;67.52;99611.78;5140683;28;20054;-63
2022/11/23 06:27:06;;;;;;;7.95;2.10;;;;;;;10.12;67.06;99615.84;5133890;28;20051;-63
2022/11/23 06:29:35;;;;;;;11.63;2.63;;;;;;;10.10;67.17;99616.09;5138236;28;20039;-62
2022/11/23 06:32:03;;;;;;;8.82;2.25;;;;;;;10.07;67.51;99613.91;5144162;27;20039;-63
2022/11/23 06:34:31;;;;;;;9.60;2.03;;;;;;;10.09;67.11;99625.19;5145470;27;20043;-63
2022/11/23 06:36:59;;;;;;;7.78;2.10;;;;;;;10.10;67.36;99620.63;5147265;27;20047;-66
2022/11/23 06:39:26;;;;;;;10.02;2.45;;;;;;;10.11;67.35;99619.59;5143302;27;20051;-69
2022/11/23 06:41:54;;;;;;;14.15;2.90;;;;;;;10.10;67.37;99610.72;5146879;27;20043;-65
2022/11/23 06:44:43;;;;;;;7.93;1.85;;;;;;;10.12;67.21;99623.88;5140346;27;20080;-67
2022/11/23 06:47:11;;;;;;;7.28;2.05;;;;;;;10.13;67.25;99622.00;5146410;27;20047;-66
2022/11/23 06:49:44;;;;;;;14.30;2.72;;;;;;;10.13;67.11;99630.06;5139726;27;20047;-62
2022/11/23 06:52:12;;;;;;;10.02;2.20;;;;;;;10.10;66.93;99628.69;5147895;27;20050;-65
2022/11/23 06:54:40;;;;;;;11.57;3.13;;;;;;;10.09;66.99;99627.88;5135722;27;20078;-64
2022/11/23 06:57:08;;;;;;;10.35;2.60;;;;;;;10.12;67.32;99640.00;5140094;27;20442;-64
2022/11/23 06:59:35;;;;;;;13.48;2.65;;;;;;;10.13;67.15;99638.94;5145138;27;20047;-64
2022/11/23 07:02:11;;;;;;;13.15;3.22;;;;;;;10.11;66.99;99641.06;5136813;27;20063;-64
2022/11/23 07:04:38;;;;;;;9.40;2.30;;;;;;;10.09;67.06;99649.34;5146346;27;20050;-64
2022/11/23 07:07:07;;;;;;;9.98;2.55;;;;;;;10.09;67.31;99653.91;5144526;27;20051;-64
2022/11/23 07:09:35;;;;;;;10.93;2.80;;;;;;;10.08;67.06;99644.25;5137764;27;20343;-66
2022/11/23 07:12:03;;;;;;;10.32;2.90;;;;;;;10.08;67.29;99654.97;5147338;27;20046;-64
2022/11/23 07:14:30;;;;;;;7.40;2.50;;;;;;;10.09;67.35;99656.59;5128654;27;20079;-64
2022/11/23 07:16:58;;;;;;;10.85;2.17;;;;;;;10.08;66.73;99668.41;5144866;27;20535;-64
2022/11/23 07:19:27;;;;;;;14.82;3.22;;;;;;;10.07;67.33;99662.22;5145706;27;20053;-63
2022/11/23 07:21:55;;;;;;;9.35;2.50;;;;;;;10.06;67.13;99670.50;4781564;27;9999673;-62
2022/11/23 07:24:22;;;;;;;11.45;2.97;;;;;;;10.05;67.45;99677.75;5139413;27;20467;-62
2022/11/23 07:26:50;;;;;;;8.40;2.22;;;;;;;10.06;67.31;99674.00;5135926;27;20054;-62
2022/11/23 07:29:18;;;;;;;10.07;2.50;;;;;;;10.05;67.45;99679.63;5138683;27;20185;-63
2022/11/23 07:31:46;;;;;;;7.03;2.40;;;;;;;10.06;66.95;99678.56;5142859;27;20042;-62
2022/11/23 07:34:13;;;;;;;11.00;2.13;;;;;;;10.03;67.30;99685.25;5141707;27;20070;-61
2022/11/23 07:36:44;;;;;;;11.32;2.38;;;;;;;10.01;67.39;99689.22;5138368;27;20055;-62
2022/11/23 07:39:11;;;;;;;13.77;2.42;;;;;;;10.02;67.44;99693.53;5131016;27;20055;-63
2022/11/23 07:41:39;;;;;;;12.30;2.10;;;;;;;10.03;67.17;99695.16;5141228;27;20170;-62
2022/11/23 07:44:07;;;;;;;8.52;2.15;;;;;;;10.00;67.05;99699.16;5129757;27;20309;-63
2022/11/23 07:46:35;;;;;;;9.07;2.15;;;;;;;9.97;67.34;99693.47;5139000;27;20055;-62
2022/11/23 07:49:03;;;;;;;6.72;2.20;;;;;;;9.97;67.11;99696.16;5139772;27;20083;-63
2022/11/23 07:51:31;;;;;;;8.80;2.67;;;;;;;9.96;67.46;99703.38;5142871;27;20157;-63
2022/11/23 07:54:00;;;;;;;12.98;3.08;;;;;;;10.00;67.03;99704.53;5141572;27;20804;-62
2022/11/23 07:56:28;;;;;;;9.73;2.05;;;;;;;10.02;67.35;99706.97;5142814;27;20051;-63
2022/11/23 07:58:55;;;;;;;13.40;2.92;;;;;;;10.00;67.34;99709.09;5136368;27;20060;-63
2022/11/23 08:01:23;;;;;;;7.40;2.45;;;;;;;9.98;67.07;99711.19;5134075;27;20110;-62
2022/11/23 08:03:51;;;;;;;10.02;2.58;;;;;;;9.99;66.99;99712.81;5141490;27;20061;-59
2022/11/23 08:06:18;;;;;;;7.53;1.98;;;;;;;10.01;67.16;99713.38;5137630;27;20145;-60
2022/11/23 08:08:46;;;;;;;11.95;2.47;;;;;;;10.04;67.26;99718.28;5139331;27;20082;-61
2022/11/23 08:11:17;;;;;;;12.15;2.17;;;;;;;10.03;67.06;99719.31;5139588;27;20043;-60
2022/11/23 08:13:45;;;;;;;9.75;2.05;;;;;;;10.05;66.76;99715.34;5130488;27;20601;-60
2022/11/23 08:16:13;;;;;;;8.82;2.42;;;;;;;10.17;66.51;99712.56;5138822;27;20050;-60
2022/11/23 08:18:40;;;;;;;7.65;2.55;;;;;;;10.30;65.98;99716.78;5139687;27;20043;-60
2022/11/23 08:21:08;;;;;;;11.35;2.42;;;;;;;10.42;65.61;99712.91;5138648;27;20070;-60
2022/11/23 08:23:36;;;;;;;9.98;2.40;;;;;;;10.55;65.24;99705.53;5142128;27;20082;-61
2022/11/23 08:26:04;;;;;;;5.00;1.75;;;;;;;10.74;64.65;99709.53;5141768;27;20051;-61
2022/11/23 08:28:41;;;;;;;11.13;2.65;;;;;;;10.96;63.91;99717.59;5132013;27;20096;-61
2022/11/23 08:31:10;;;;;;;13.50;2.50;;;;;;;11.07;63.44;99717.44;5121854;28;20052;-61
2022/11/23 08:33:37;;;;;;;5.70;1.92;;;;;;;11.21;63.01;99715.19;5133658;27;20048;-61
2022/11/23 08:36:07;;;;;;;7.80;3.10;;;;;;;11.39;62.40;99714.81;5138347;27;20177;-60
2022/11/23 08:38:35;;;;;;;8.30;2.45;;;;;;;11.51;62.06;99721.91;5140948;27;20055;-61
2022/11/23 08:41:04;;;;;;;9.30;2.45;;;;;;;11.64;61.49;99711.53;5140740;27;20062;-60
2022/11/23 08:43:33;;;;;;;15.95;2.60;;;;;;;11.77;61.36;99722.94;5136352;27;20052;-61
2022/11/23 08:46:03;;;;;;;10.20;2.75;;;;;;;11.78;61.27;99722.72;5131969;27;20066;-63
2022/11/23 08:48:37;;;;;;;9.48;2.25;;;;;;;11.72;60.95;99721.84;5125270;27;20426;-61
2022/11/23 08:51:05;;;;;;;11.02;2.30;;;;;;;11.93;60.70;99717.44;5127538;27;20043;-61
2022/11/23 08:53:33;;;;;;;7.05;2.08;;;;;;;11.95;60.54;99723.38;5121790;27;20056;-61
2022/11/23 08:56:01;;;;;;;10.43;2.30;;;;;;;12.13;59.87;99724.06;5140322;27;20055;-60
2022/11/23 08:58:29;;;;;;;8.88;2.58;;;;;;;11.98;60.60;99728.25;5140529;27;20135;-61
2022/11/23 09:00:57;;;;;;;9.02;1.83;;;;;;;11.78;60.98;99724.59;5130995;27;20154;-61
2022/11/23 09:03:29;;;;;;;7.03;2.00;;;;;;;11.63;61.52;99718.00;5126936;27;20115;-62
2022/11/23 09:06:00;;;;;;;10.10;2.80;;;;;;;11.35;61.54;99710.19;5140390;27;20054;-62
2022/11/23 09:08:28;;;;;;;11.30;2.67;;;;;;;11.23;62.53;99715.72;5140997;27;20130;-64
2022/11/23 09:10:59;;;;;;;7.75;2.03;;;;;;;11.15;63.00;99715.38;5133536;27;20047;-62
2022/11/23 09:13:27;;;;;;;13.32;2.35;;;;;;;11.02;63.54;99716.59;5141154;27;20047;-63
2022/11/23 09:15:58;;;;;;;8.23;2.60;;;;;;;10.93;64.12;99708.16;5137934;27;20216;-64
2022/11/23 09:18:30;;;;;;;8.27;2.10;;;;;;;11.05;64.65;99708.00;5140390;27;20047;-62
2022/11/23 09:20:58;;;;;;;7.65;2.00;;;;;;;10.96;64.06;99715.72;5124949;27;20067;-64
2022/11/23 09:23:26;;;;;;;10.82;2.50;;;;;;;10.95;64.50;99702.53;5139795;27;20047;-62
2022/11/23 09:25:54;;;;;;;10.40;2.45;;;;;;;10.92;64.66;99714.59;5140529;27;20067;-62
2022/11/23 09:28:23;;;;;;;7.45;1.88;;;;;;;10.85;64.36;99711.28;5127470;27;20047;-61
2022/11/23 09:30:52;;;;;;;7.10;1.98;;;;;;;10.86;64.81;99702.16;5141330;27;20110;-61
2022/11/23 09:33:19;;;;;;;11.20;3.30;;;;;;;10.80;65.00;99705.03;5140524;27;20043;-61
2022/11/23 09:35:56;;;;;;;7.38;2.05;;;;;;;11.13;64.89;99706.75;5138528;27;20059;-67
2022/11/23 09:38:24;;;;;;;7.30;2.30;;;;;;;11.23;63.74;99690.72;5140170;27;20439;-65
2022/11/23 09:41:26;;;;;;;8.50;2.28;;;;;;;11.18;64.53;99680.72;5140805;27;20086;-63
2022/11/23 09:44:02;;;;;;;10.30;2.40;;;;;;;10.95;65.24;99681.03;5136571;27;20520;-67
2022/11/23 09:46:41;;;;;;;8.00;2.20;;;;;;;11.29;65.93;99679.75;5126705;27;20054;-66
2022/11/23 09:49:13;;;;;;;10.48;2.53;;;;;;;11.53;63.93;99672.16;5130135;27;20077;-67
2022/11/23 09:51:44;;;;;;;8.55;2.33;;;;;;;11.18;63.80;99656.53;5141071;27;20058;-69
2022/11/23 09:54:23;;;;;;;11.77;3.28;;;;;;;10.94;64.66;99669.47;5126780;27;20130;-66
2022/11/23 09:56:53;;;;;;;8.32;2.15;;;;;;;10.99;64.97;99650.69;5134244;27;20050;-69
2022/11/23 09:59:39;;;;;;;9.88;1.98;;;;;;;10.94;65.09;99650.63;5120115;28;20056;-66
2022/11/23 10:02:19;;;;;;;9.82;2.63;;;;;;;10.85;64.89;99654.03;5120388;28;20050;-66
2022/11/23 10:04:47;;;;;;;8.10;2.03;;;;;;;10.81;65.30;99658.28;5122729;28;20515;-67
2022/11/23 10:07:38;;;;;;;10.18;2.63;;;;;;;10.77;65.47;99652.59;5139036;27;20471;-67
2022/11/23 10:10:16;;;;;;;12.25;2.45;;;;;;;10.76;66.01;99648.28;5139774;27;20106;-67
2022/11/23 10:12:53;;;;;;;11.35;2.03;;;;;;;10.76;65.89;99641.03;5121419;28;20074;-68
2022/11/23 10:15:26;;;;;;;13.65;2.58;;;;;;;10.76;65.72;99645.59;5125269;28;20102;-68
2022/11/23 10:18:16;;;;;;;10.32;2.38;;;;;;;10.83;65.65;99635.47;5132024;28;20062;-67
2022/11/23 10:20:59;;;;;;;8.43;2.42;;;;;;;10.77;65.57;99637.28;5129116;28;20054;-67
2022/11/23 10:23:43;;;;;;;6.85;1.80;;;;;;;10.76;65.78;99642.91;5139912;28;20126;-67
2022/11/23 10:26:14;;;;;;;4.30;1.98;;;;;;;10.73;65.97;99636.19;5134215;28;20107;-67
2022/11/23 10:28:43;;;;;;;9.45;1.83;;;;;;;10.76;66.53;99638.34;5130327;27;20111;-67
2022/11/23 10:31:14;;;;;;;8.70;2.25;;;;;;;10.77;66.14;99637.28;5119638;28;20054;-68
2022/11/23 10:33:51;;;;;;;6.93;1.65;;;;;;;10.75;66.15;99633.25;5136487;28;20035;-67
2022/11/23 10:36:19;;;;;;;6.93;2.40;;;;;;;10.73;66.33;99636.19;5136741;28;20144;-67
2022/11/23 10:38:50;;;;;;;12.25;2.15;;;;;;;10.71;66.24;99629.44;5139103;28;20523;-68
2022/11/23 10:41:18;;;;;;;6.93;1.70;;;;;;;10.69;66.41;99637.75;5122768;28;20066;-68
2022/11/23 10:43:51;;;;;;;8.73;2.10;;;;;;;10.93;66.41;99627.50;5142228;28;20106;-68
2022/11/23 10:46:30;;;;;;;7.55;1.77;;;;;;;10.89;66.24;99623.72;5141836;28;20478;-68
2022/11/23 10:49:19;;;;;;;6.25;1.60;;;;;;;10.86;66.45;99626.09;5140369;28;20043;-67
2022/11/23 10:51:52;;;;;;;7.35;2.20;;;;;;;10.85;66.08;99621.78;5143499;28;20047;-68
2022/11/23 10:54:27;;;;;;;9.63;1.85;;;;;;;10.88;66.27;99616.72;5135213;27;20070;-68
2022/11/23 10:56:56;;;;;;;10.38;1.85;;;;;;;10.89;66.29;99622.91;5131543;28;20134;-68
2022/11/23 10:59:34;;;;;;;10.55;2.30;;;;;;;10.98;66.25;99607.94;5143252;28;20051;-68
2022/11/23 11:02:21;;;;;;;9.45;2.50;;;;;;;10.93;65.99;99607.88;5125344;28;20051;-66
2022/11/23 11:04:50;;;;;;;10.15;2.45;;;;;;;10.90;66.24;99603.81;5128558;28;20058;-69
2022/11/23 11:07:28;;;;;;;7.17;1.47;;;;;;;10.86;66.13;99594.66;5137117;28;20431;-67
2022/11/23 11:09:59;;;;;;;8.43;2.65;;;;;;;10.82;66.54;99593.53;5136542;28;20820;-67
2022/11/23 11:12:28;;;;;;;8.52;2.00;;;;;;;10.84;66.59;99607.53;5140021;28;20119;-67
2022/11/23 11:15:01;;;;;;;8.15;1.60;;;;;;;10.97;66.79;99604.44;5140988;28;20051;-67
2022/11/23 11:17:38;;;;;;;7.75;1.95;;;;;;;11.18;66.33;99607.31;5134567;27;20047;-67
2022/11/23 11:20:29;;;;;;;7.22;1.80;;;;;;;11.13;65.50;99600.00;5143211;27;20043;-67
2022/11/23 11:22:59;;;;;;;7.80;1.90;;;;;;;11.32;66.18;99590.47;5141341;27;20500;-63
2022/11/23 11:25:31;;;;;;;17.42;2.13;;;;;;;11.35;65.78;99598.03;5136798;27;20043;-64
2022/11/23 11:27:59;;;;;;;5.22;1.42;;;;;;;11.23;65.33;99581.25;5137631;27;20062;-64
2022/11/23 11:30:32;;;;;;;8.20;2.88;;;;;;;11.25;66.16;99575.63;5123928;27;20061;-64
2022/11/23 11:33:09;;;;;;;10.82;2.17;;;;;;;11.12;65.57;99562.63;5127506;27;20103;-65
2022/11/23 11:35:40;;;;;;;8.20;1.30;;;;;;;11.16;66.12;99566.41;5144705;27;20058;-66
2022/11/23 11:38:16;;;;;;;11.30;1.73;;;;;;;11.32;66.79;99562.78;5135324;27;20069;-66
2022/11/23 11:40:48;;;;;;;7.90;1.38;;;;;;;11.45;66.75;99559.63;5143675;27;20061;-66
2022/11/23 11:43:20;;;;;;;7.78;1.70;;;;;;;11.40;65.84;99546.16;5133716;27;20040;-67